Time;durP1;ratioP1;P1;durP2;ratioP2;P2;SDS_P1;SDS_P2;PMS_P1;PMS_P2;Temp;Humidity;BMP_temperature;BMP_pressure;BME280_temperature;BME280_humidity;BME280_pressure;Samples;Min_cycle;Max_cycle;Signal;HPM_P1;HPM_P2
2022/10/01 00:00:59;;;;;;;1.50;1.40;;;22.30;41.20;;;;;;5008667;28;20844;-89
2022/10/01 00:03:26;;;;;;;1.97;1.83;;;22.30;41.20;;;;;;5014503;28;20463;-88
2022/10/01 00:06:10;;;;;;;1.80;1.70;;;22.30;41.20;;;;;;5011686;28;20475;-89
2022/10/01 00:08:40;;;;;;;1.67;1.43;;;22.30;41.20;;;;;;5014653;28;20464;-89
2022/10/01 00:11:11;;;;;;;1.60;1.50;;;22.30;41.20;;;;;;5015731;28;20468;-88
2022/10/01 00:13:37;;;;;;;1.60;1.50;;;22.30;41.20;;;;;;5015955;28;20475;-89
2022/10/01 00:16:07;;;;;;;1.53;1.43;;;22.30;41.20;;;;;;5000898;28;20561;-89
2022/10/01 00:18:38;;;;;;;1.43;1.33;;;22.30;41.20;;;;;;5011248;28;20444;-89
2022/10/01 00:21:08;;;;;;;1.40;1.30;;;22.30;41.20;;;;;;5014300;28;20464;-89
2022/10/01 00:23:34;;;;;;;1.40;1.30;;;22.30;41.20;;;;;;5012556;28;20468;-89
2022/10/01 00:26:19;;;;;;;1.40;1.30;;;22.30;41.20;;;;;;5014281;28;20483;-90
2022/10/01 00:28:47;;;;;;;1.80;1.70;;;22.30;41.20;;;;;;5014454;28;20544;-89
2022/10/01 00:31:14;;;;;;;1.40;1.30;;;22.30;41.20;;;;;;5001533;28;20459;-89
2022/10/01 00:33:40;;;;;;;1.40;1.30;;;22.30;41.30;;;;;;4997883;28;20448;-89
2022/10/01 00:36:07;;;;;;;1.40;1.30;;;22.30;41.20;;;;;;5014834;28;20475;-89
2022/10/01 00:38:33;;;;;;;1.60;1.50;;;22.30;42.00;;;;;;5015304;28;20989;-89
2022/10/01 00:40:59;;;;;;;1.53;1.43;;;22.30;41.20;;;;;;5008605;28;20456;-89
2022/10/01 00:43:28;;;;;;;2.37;1.53;;;22.30;41.20;;;;;;4997129;28;20265;-89
2022/10/01 00:45:57;;;;;;;1.50;1.40;;;22.30;41.20;;;;;;5013412;28;20460;-89
2022/10/01 00:48:24;;;;;;;1.60;1.50;;;22.30;41.20;;;;;;5012450;28;20480;-89
2022/10/01 00:50:51;;;;;;;1.53;1.43;;;22.30;41.20;;;;;;4993075;28;20500;-88
2022/10/01 00:53:19;;;;;;;1.50;1.40;;;22.30;41.20;;;;;;5001532;28;21522;-89
2022/10/01 00:55:54;;;;;;;1.40;1.30;;;22.30;41.20;;;;;;5018856;28;20464;-89
2022/10/01 00:58:20;;;;;;;1.53;1.43;;;22.30;41.20;;;;;;5015545;28;20445;-89
2022/10/01 01:00:47;;;;;;;1.50;1.40;;;22.30;41.20;;;;;;5014688;28;21042;-89
2022/10/01 01:03:14;;;;;;;1.33;1.23;;;22.30;41.20;;;;;;5016275;28;20528;-89
2022/10/01 01:05:39;;;;;;;1.50;1.40;;;22.30;41.20;;;;;;5013950;28;20473;-89
2022/10/01 01:08:06;;;;;;;1.70;1.60;;;22.30;41.20;;;;;;4991207;28;21001;-89
2022/10/01 01:10:51;;;;;;;1.67;1.57;;;22.30;41.20;;;;;;5011854;28;20289;-89
2022/10/01 01:13:33;;;;;;;1.43;1.33;;;22.30;41.20;;;;;;5012458;28;20455;-89
2022/10/01 01:16:11;;;;;;;1.50;1.40;;;22.30;41.20;;;;;;5009975;28;20460;-90
2022/10/01 01:19:03;;;;;;;1.40;1.30;;;22.30;41.30;;;;;;5011504;28;20503;-89
2022/10/01 01:21:37;;;;;;;1.80;1.70;;;22.30;41.20;;;;;;5017577;28;20505;-90
2022/10/01 01:24:03;;;;;;;1.63;1.53;;;22.30;41.20;;;;;;5014556;28;21530;-88
2022/10/01 01:26:53;;;;;;;1.60;1.50;;;22.30;41.20;;;;;;5015574;28;20460;-90
2022/10/01 01:29:28;;;;;;;1.37;1.27;;;22.30;41.20;;;;;;5016283;28;20325;-89
2022/10/01 01:32:01;;;;;;;1.27;1.17;;;22.30;41.20;;;;;;5020215;28;20462;-89
2022/10/01 01:34:30;;;;;;;1.40;1.30;;;22.30;41.20;;;;;;5017391;28;20921;-89
2022/10/01 01:37:03;;;;;;;1.53;1.43;;;22.30;41.20;;;;;;5018150;28;20504;-89
2022/10/01 01:39:32;;;;;;;1.50;1.40;;;22.30;41.20;;;;;;5018169;28;20498;-89
2022/10/01 01:42:04;;;;;;;1.40;1.30;;;22.30;41.20;;;;;;5021037;28;20514;-89
2022/10/01 01:44:34;;;;;;;1.30;1.20;;;22.30;41.20;;;;;;5013425;28;20475;-91
2022/10/01 01:47:01;;;;;;;1.30;1.20;;;22.30;41.20;;;;;;5019519;28;20467;-90
2022/10/01 01:49:28;;;;;;;1.50;1.40;;;22.30;41.20;;;;;;5018679;28;20479;-90
2022/10/01 01:52:16;;;;;;;1.57;1.43;;;22.30;41.20;;;;;;5015333;28;20461;-90
2022/10/01 01:54:44;;;;;;;1.50;1.40;;;22.30;41.20;;;;;;5003652;28;20832;-90
2022/10/01 01:57:12;;;;;;;1.30;1.20;;;22.30;41.20;;;;;;5001921;28;20503;-90
2022/10/01 01:59:38;;;;;;;1.40;1.30;;;22.30;41.20;;;;;;5018097;28;20521;-90
2022/10/01 02:02:07;;;;;;;1.60;1.50;;;22.30;41.20;;;;;;5020565;28;20465;-90
2022/10/01 02:04:38;;;;;;;1.40;1.30;;;22.30;41.20;;;;;;5017257;28;20528;-89
2022/10/01 02:07:20;;;;;;;1.40;1.30;;;22.30;41.20;;;;;;5018220;28;20467;-90
2022/10/01 02:10:00;;;;;;;1.50;1.40;;;22.30;41.20;;;;;;5017155;28;20548;-90
2022/10/01 02:12:50;;;;;;;1.30;1.20;;;22.20;41.10;;;;;;5017456;28;20456;-89
2022/10/01 02:15:22;;;;;;;1.40;1.30;;;22.30;41.20;;;;;;5016937;28;20476;-89
2022/10/01 02:18:01;;;;;;;1.53;1.43;;;22.30;41.20;;;;;;5015732;28;20479;-90
2022/10/01 02:20:49;;;;;;;1.40;1.30;;;22.20;41.10;;;;;;5015952;28;20509;-89
2022/10/01 02:23:21;;;;;;;1.50;1.40;;;22.20;41.10;;;;;;5018225;28;20467;-89
2022/10/01 02:25:52;;;;;;;1.37;1.27;;;22.20;41.90;;;;;;5018250;28;20456;-89
2022/10/01 02:28:22;;;;;;;1.60;1.50;;;22.20;41.10;;;;;;5016257;28;20465;-89
2022/10/01 02:30:53;;;;;;;1.17;1.07;;;22.20;41.10;;;;;;5016141;28;20464;-86
2022/10/01 02:33:24;;;;;;;1.10;1.00;;;22.30;41.20;;;;;;5005819;28;20837;-89
2022/10/01 02:35:52;;;;;;;1.40;1.30;;;22.20;41.10;;;;;;5001958;28;20460;-89
2022/10/01 02:38:21;;;;;;;1.30;1.20;;;22.20;41.10;;;;;;5004721;28;20884;-88
2022/10/01 02:40:52;;;;;;;1.40;1.30;;;22.20;41.10;;;;;;5002812;28;20452;-89
2022/10/01 02:43:21;;;;;;;1.40;1.30;;;22.20;41.90;;;;;;5014541;28;20466;-89
2022/10/01 02:45:54;;;;;;;1.60;1.50;;;22.20;41.10;;;;;;5018719;28;20452;-90
2022/10/01 02:48:19;;;;;;;1.30;1.20;;;22.20;41.10;;;;;;5017794;28;20476;-89
2022/10/01 02:50:54;;;;;;;1.20;1.10;;;22.30;41.20;;;;;;5019119;28;20452;-89
2022/10/01 02:53:46;;;;;;;1.33;1.23;;;22.20;41.10;;;;;;4999613;28;20222;-89
2022/10/01 02:57:21;;;;;;;1.20;1.10;;;22.20;41.10;;;;;;5018955;28;20452;-89
2022/10/01 02:59:07;;;;;;;1.20;1.10;;;22.20;41.10;;;;;;5017483;28;20487;-90
2022/10/01 03:01:34;;;;;;;1.30;1.20;;;22.20;41.10;;;;;;5017901;28;20442;-90
2022/10/01 03:04:01;;;;;;;1.10;1.00;;;22.20;41.10;;;;;;5016289;28;20489;-90
2022/10/01 03:06:26;;;;;;;1.00;0.90;;;22.30;41.20;;;;;;5013092;28;20853;-90
2022/10/01 03:08:52;;;;;;;1.50;1.03;;;22.20;41.10;;;;;;5015037;28;20999;-90
2022/10/01 03:11:19;;;;;;;1.43;1.33;;;22.20;41.10;;;;;;5016579;28;20222;-88
2022/10/01 03:13:45;;;;;;;1.57;1.00;;;22.20;41.10;;;;;;5016973;28;20238;-89
2022/10/01 03:16:10;;;;;;;1.30;1.20;;;22.20;41.10;;;;;;5017081;28;20488;-91
2022/10/01 03:18:36;;;;;;;1.20;1.10;;;22.20;41.10;;;;;;5015635;28;20301;-89
2022/10/01 03:21:02;;;;;;;1.20;1.10;;;22.30;41.20;;;;;;5017398;28;20222;-90
2022/10/01 03:23:27;;;;;;;1.23;1.13;;;22.20;41.10;;;;;;5016649;28;20226;-91
2022/10/01 03:25:52;;;;;;;1.37;1.27;;;22.20;41.10;;;;;;5017399;28;20227;-90
2022/10/01 03:28:18;;;;;;;1.40;1.30;;;22.20;41.10;;;;;;5019437;28;20231;-90
2022/10/01 03:30:44;;;;;;;1.20;1.10;;;22.20;41.10;;;;;;5000340;28;20315;-90
2022/10/01 03:33:09;;;;;;;1.10;1.00;;;22.20;41.10;;;;;;5016906;28;20279;-90
2022/10/01 03:35:35;;;;;;;1.30;1.20;;;22.20;41.10;;;;;;5015492;28;20235;-91
2022/10/01 03:38:01;;;;;;;1.40;1.20;;;22.30;41.20;;;;;;5016640;28;20238;-90
2022/10/01 03:40:27;;;;;;;1.20;1.10;;;22.20;41.10;;;;;;5017180;28;20225;-90
2022/10/01 03:42:53;;;;;;;1.00;1.00;;;22.20;41.10;;;;;;5011593;28;20510;-90
2022/10/01 03:45:19;;;;;;;1.30;1.10;;;22.20;41.10;;;;;;5017255;28;20464;-90
2022/10/01 03:47:51;;;;;;;1.20;1.10;;;22.20;41.90;;;;;;5015304;28;20232;-89
2022/10/01 03:50:16;;;;;;;1.27;1.17;;;22.20;41.10;;;;;;4993875;28;20301;-89
2022/10/01 03:52:43;;;;;;;1.27;1.17;;;22.20;41.10;;;;;;5013422;28;20462;-90
2022/10/01 03:55:09;;;;;;;1.20;1.10;;;22.20;41.10;;;;;;5011443;28;20692;-90
2022/10/01 03:57:34;;;;;;;0.90;0.90;;;22.20;41.10;;;;;;5011494;28;20485;-91
2022/10/01 04:00:00;;;;;;;1.17;1.07;;;22.30;41.20;;;;;;5015435;28;20228;-93
2022/10/01 04:02:26;;;;;;;1.27;1.17;;;22.20;41.10;;;;;;5000808;28;20292;-89
2022/10/01 04:04:52;;;;;;;1.40;1.30;;;22.20;41.10;;;;;;5007692;28;20250;-89
2022/10/01 04:07:17;;;;;;;1.43;1.33;;;22.20;41.10;;;;;;5010754;28;20223;-90
2022/10/01 04:09:43;;;;;;;1.20;1.10;;;22.20;41.20;;;;;;5013582;28;20217;-89
2022/10/01 04:12:08;;;;;;;1.40;1.30;;;22.20;41.10;;;;;;5012215;28;20222;-85
2022/10/01 04:14:34;;;;;;;1.20;1.10;;;22.20;41.10;;;;;;4988937;28;20223;-90
2022/10/01 04:16:59;;;;;;;1.33;1.20;;;22.20;41.10;;;;;;5006864;28;20253;-86
2022/10/01 04:19:25;;;;;;;1.30;1.20;;;22.20;41.10;;;;;;5011021;28;20243;-89
2022/10/01 04:21:50;;;;;;;1.30;1.20;;;22.20;41.10;;;;;;5010430;28;20305;-90
2022/10/01 04:24:16;;;;;;;1.20;1.10;;;22.20;41.10;;;;;;5010761;28;20647;-88
2022/10/01 04:26:41;;;;;;;0.90;0.90;;;22.20;41.10;;;;;;5013729;28;20219;-90
2022/10/01 04:29:07;;;;;;;1.13;1.00;;;22.20;41.10;;;;;;5008891;28;20230;-85
2022/10/01 04:31:33;;;;;;;1.50;1.40;;;22.20;41.20;;;;;;5012319;28;20233;-90
2022/10/01 04:33:59;;;;;;;1.00;1.00;;;22.20;41.10;;;;;;5011545;28;20293;-87
2022/10/01 04:36:25;;;;;;;1.20;1.10;;;22.20;41.10;;;;;;5011852;28;20568;-88
2022/10/01 04:38:51;;;;;;;1.27;1.17;;;22.30;41.20;;;;;;5017007;28;20222;-89
2022/10/01 04:41:17;;;;;;;1.30;1.20;;;22.20;41.10;;;;;;5006618;28;20503;-89
2022/10/01 04:43:43;;;;;;;1.13;1.03;;;22.20;41.10;;;;;;5012406;28;20811;-91
2022/10/01 04:46:08;;;;;;;0.90;0.90;;;22.20;41.10;;;;;;5008113;28;20262;-88
2022/10/01 04:48:34;;;;;;;1.20;1.10;;;22.20;41.10;;;;;;5009345;28;20257;-87
2022/10/01 04:50:59;;;;;;;0.90;0.90;;;22.20;41.10;;;;;;5009604;28;20222;-89
2022/10/01 04:53:25;;;;;;;1.20;1.10;;;22.20;41.10;;;;;;5011200;28;20223;-89
2022/10/01 04:55:51;;;;;;;1.40;1.30;;;22.20;41.90;;;;;;5013741;28;20222;-90
2022/10/01 04:58:17;;;;;;;0.90;0.90;;;22.20;41.10;;;;;;5011493;28;20222;-88
2022/10/01 05:00:43;;;;;;;1.00;0.90;;;22.20;41.10;;;;;;5009601;28;20227;-87
2022/10/01 05:03:08;;;;;;;1.20;1.10;;;22.20;41.10;;;;;;5015723;28;20462;-89
2022/10/01 05:05:34;;;;;;;1.20;1.10;;;22.20;41.10;;;;;;5013133;28;20588;-90
2022/10/01 05:08:00;;;;;;;1.20;1.10;;;22.30;41.20;;;;;;5016768;28;20577;-85
2022/10/01 05:10:26;;;;;;;1.47;1.00;;;22.30;41.20;;;;;;5017331;28;20222;-88
2022/10/01 05:12:52;;;;;;;0.90;0.90;;;22.30;41.20;;;;;;5000021;28;20449;-85
2022/10/01 05:15:18;;;;;;;0.90;0.90;;;22.30;41.20;;;;;;5014751;28;20345;-91
2022/10/01 05:17:44;;;;;;;1.20;1.00;;;22.30;41.20;;;;;;5021534;28;20234;-91
2022/10/01 05:20:16;;;;;;;0.90;0.87;;;22.30;41.20;;;;;;5015585;28;20445;-87
2022/10/01 05:22:43;;;;;;;1.20;1.10;;;22.30;41.20;;;;;;5016453;28;20713;-90
2022/10/01 05:25:08;;;;;;;1.00;0.90;;;22.30;41.20;;;;;;5019382;28;20467;-88
2022/10/01 05:27:36;;;;;;;1.00;1.00;;;22.30;41.20;;;;;;5017045;28;20463;-91
2022/10/01 05:30:04;;;;;;;1.00;0.90;;;22.30;42.00;;;;;;5019381;28;20749;-91
2022/10/01 05:32:30;;;;;;;1.00;0.90;;;22.30;41.20;;;;;;5012636;28;21985;-87
2022/10/01 05:34:55;;;;;;;1.23;1.13;;;22.30;41.20;;;;;;5015101;28;20824;-89
2022/10/01 05:37:21;;;;;;;2.10;1.20;;;22.30;41.20;;;;;;5024414;28;20456;-88
2022/10/01 05:39:47;;;;;;;1.20;1.10;;;22.30;41.20;;;;;;5000407;28;20276;-89
2022/10/01 05:42:12;;;;;;;1.00;0.90;;;22.30;41.20;;;;;;5018254;28;20229;-86
2022/10/01 05:44:39;;;;;;;1.17;1.10;;;22.30;41.20;;;;;;4989754;28;20230;-86
2022/10/01 05:47:05;;;;;;;1.03;0.97;;;22.30;41.20;;;;;;5016861;28;20229;-88
2022/10/01 05:49:32;;;;;;;0.97;0.97;;;22.30;41.20;;;;;;5013813;28;20468;-89
2022/10/01 05:51:59;;;;;;;1.03;0.97;;;22.30;41.20;;;;;;5018001;28;20504;-89
2022/10/01 05:54:25;;;;;;;0.90;0.90;;;22.30;41.20;;;;;;5022688;28;20600;-88
2022/10/01 05:56:52;;;;;;;1.67;0.90;;;22.30;41.20;;;;;;4998248;28;20838;-88
2022/10/01 05:59:17;;;;;;;0.83;0.80;;;22.30;41.20;;;;;;5014980;28;20464;-90
2022/10/01 06:01:43;;;;;;;1.10;1.00;;;22.30;41.30;;;;;;5010286;28;20864;-88
2022/10/01 06:04:09;;;;;;;1.00;0.90;;;22.30;41.20;;;;;;5013837;28;20666;-88
2022/10/01 06:06:35;;;;;;;0.80;0.80;;;22.30;41.20;;;;;;5012532;28;20262;-88
2022/10/01 06:09:00;;;;;;;0.97;0.93;;;22.30;41.20;;;;;;5013397;28;20522;-87
2022/10/01 06:11:26;;;;;;;0.90;0.80;;;22.30;41.20;;;;;;5010746;28;20219;-88
2022/10/01 06:13:52;;;;;;;0.93;0.90;;;22.30;41.20;;;;;;5012336;28;21893;-85
2022/10/01 06:16:19;;;;;;;1.00;0.90;;;22.30;41.20;;;;;;5015911;28;20214;-88
2022/10/01 06:18:47;;;;;;;1.37;1.27;;;22.30;41.20;;;;;;5011681;28;20250;-86
2022/10/01 06:21:13;;;;;;;0.90;0.90;;;22.30;41.20;;;;;;5013135;28;20847;-85
2022/10/01 06:23:38;;;;;;;0.90;0.90;;;22.40;41.30;;;;;;5014318;28;20957;-88
2022/10/01 06:26:05;;;;;;;4.50;1.40;;;22.30;41.20;;;;;;4991908;28;20362;-88
2022/10/01 06:28:31;;;;;;;1.10;1.00;;;22.30;41.20;;;;;;5009393;28;20707;-89
2022/10/01 06:31:00;;;;;;;1.00;0.90;;;22.30;41.20;;;;;;5007072;28;20468;-85
2022/10/01 06:33:25;;;;;;;1.23;1.13;;;22.30;41.20;;;;;;4994698;28;20456;-85
2022/10/01 06:35:51;;;;;;;0.83;0.83;;;22.30;41.20;;;;;;5011706;28;20491;-89
2022/10/01 06:38:20;;;;;;;1.07;1.00;;;22.30;41.20;;;;;;4993925;28;20318;-89
2022/10/01 06:40:58;;;;;;;0.90;0.90;;;22.30;41.20;;;;;;5010311;28;20487;-88
2022/10/01 06:43:26;;;;;;;0.80;0.77;;;22.30;41.20;;;;;;5009322;28;22151;-87
2022/10/01 06:45:52;;;;;;;1.20;1.10;;;22.30;41.20;;;;;;5004845;28;20660;-89
2022/10/01 06:48:18;;;;;;;0.87;0.87;;;22.30;41.20;;;;;;5013076;28;20468;-87
2022/10/01 06:50:46;;;;;;;0.93;0.90;;;22.30;41.20;;;;;;5009180;28;20261;-87
2022/10/01 06:53:12;;;;;;;1.13;1.03;;;22.30;41.30;;;;;;5011432;28;20996;-89
2022/10/01 06:55:38;;;;;;;0.90;0.90;;;22.30;41.20;;;;;;5011952;28;20487;-89
2022/10/01 06:58:07;;;;;;;0.73;0.73;;;22.40;41.30;;;;;;5012473;28;20981;-92
2022/10/01 07:00:35;;;;;;;1.10;1.00;;;22.40;41.30;;;;;;5008581;28;20250;-90
2022/10/01 07:03:03;;;;;;;0.87;0.87;;;22.40;41.30;;;;;;5013068;28;20496;-92
2022/10/01 07:05:29;;;;;;;0.90;0.90;;;22.40;41.30;;;;;;5010558;28;20471;-87
2022/10/01 07:07:54;;;;;;;0.87;0.87;;;22.40;41.30;;;;;;5017037;28;20488;-91
2022/10/01 07:10:22;;;;;;;0.83;0.80;;;22.40;41.30;;;;;;5008748;28;20310;-91
2022/10/01 07:12:48;;;;;;;0.90;0.80;;;22.40;41.30;;;;;;5007584;28;20230;-90
2022/10/01 07:15:15;;;;;;;0.77;0.70;;;22.40;41.30;;;;;;5012836;28;20444;-89
2022/10/01 07:17:47;;;;;;;0.90;0.80;;;22.40;41.40;;;;;;5010018;28;20546;-86
2022/10/01 07:20:19;;;;;;;2.70;1.00;;;22.50;41.40;;;;;;5013175;28;20439;-89
2022/10/01 07:22:46;;;;;;;1.17;0.90;;;22.40;41.30;;;;;;5011499;28;20663;-91
2022/10/01 07:25:13;;;;;;;0.90;0.90;;;22.40;41.30;;;;;;5006346;28;20452;-88
2022/10/01 07:27:38;;;;;;;1.10;0.90;;;22.40;41.30;;;;;;5018260;28;20449;-91
2022/10/01 07:30:06;;;;;;;1.00;0.90;;;22.40;41.30;;;;;;5009405;28;20502;-89
2022/10/01 07:32:34;;;;;;;1.03;0.93;;;22.40;42.10;;;;;;5002314;28;20706;-86
2022/10/01 07:35:00;;;;;;;1.63;0.80;;;22.40;41.30;;;;;;5006140;28;20472;-91
2022/10/01 07:37:26;;;;;;;1.50;1.10;;;22.40;41.30;;;;;;5003974;28;20452;-84
2022/10/01 07:39:51;;;;;;;1.43;0.93;;;22.40;41.30;;;;;;5007151;28;20510;-88
2022/10/01 07:42:17;;;;;;;1.20;1.10;;;22.40;41.30;;;;;;5012357;28;20218;-89
2022/10/01 07:44:43;;;;;;;1.20;1.10;;;22.40;41.30;;;;;;5010555;28;20211;-90
2022/10/01 07:47:08;;;;;;;1.10;1.00;;;22.40;41.30;;;;;;5012043;28;20386;-90
2022/10/01 07:49:34;;;;;;;1.00;1.00;;;22.40;41.30;;;;;;5011545;28;20231;-89
2022/10/01 07:52:00;;;;;;;1.40;1.30;;;22.40;41.30;;;;;;5007792;28;20846;-89
2022/10/01 07:54:25;;;;;;;1.63;1.53;;;22.40;41.30;;;;;;5008675;28;20238;-89
2022/10/01 07:56:54;;;;;;;1.40;1.30;;;22.40;41.30;;;;;;5004826;28;20709;-90
2022/10/01 07:59:21;;;;;;;1.40;1.30;;;22.40;41.30;;;;;;5012412;28;22264;-89
2022/10/01 08:01:53;;;;;;;1.30;1.20;;;22.40;41.30;;;;;;5006721;28;20444;-85
2022/10/01 08:07:04;;;;;;;1.50;1.30;;;22.40;41.30;;;;;;5003989;28;20598;-90
2022/10/01 08:09:30;;;;;;;1.67;1.57;;;22.40;41.30;;;;;;5009491;28;20504;-88
2022/10/01 08:11:55;;;;;;;1.40;1.30;;;22.40;41.40;;;;;;5012170;28;21022;-90
2022/10/01 08:14:21;;;;;;;1.30;1.20;;;22.40;41.30;;;;;;5008155;28;20976;-89
2022/10/01 08:16:47;;;;;;;1.20;1.10;;;22.40;41.30;;;;;;4992498;28;20959;-90
2022/10/01 08:19:14;;;;;;;1.87;1.20;;;22.40;41.30;;;;;;5008029;28;20686;-89
2022/10/01 08:21:39;;;;;;;1.97;1.87;;;22.40;41.30;;;;;;5008278;28;20683;-90
2022/10/01 08:24:05;;;;;;;1.70;1.60;;;22.40;41.30;;;;;;5005457;28;20487;-86
2022/10/01 08:26:31;;;;;;;1.30;1.20;;;22.40;41.30;;;;;;5004983;28;20582;-89
2022/10/01 08:28:56;;;;;;;1.57;1.47;;;22.40;41.30;;;;;;5004323;28;20306;-86
2022/10/01 08:31:22;;;;;;;1.43;1.33;;;22.40;41.30;;;;;;5003540;28;20317;-91
2022/10/01 08:33:47;;;;;;;1.80;1.20;;;22.40;42.10;;;;;;4995782;28;20223;-88
2022/10/01 08:36:15;;;;;;;1.87;1.77;;;22.40;41.30;;;;;;5001768;28;20251;-90
2022/10/01 08:38:44;;;;;;;1.70;1.60;;;22.40;41.30;;;;;;5005455;28;20230;-86
2022/10/01 08:41:41;;;;;;;1.57;1.47;;;22.40;41.30;;;;;;5003512;28;20601;-90
2022/10/01 08:44:16;;;;;;;1.70;1.60;;;22.40;41.30;;;;;;5005135;28;20471;-86
2022/10/01 08:46:44;;;;;;;1.50;1.37;;;22.40;41.30;;;;;;5003882;28;20467;-88
2022/10/01 08:49:17;;;;;;;1.53;1.43;;;22.40;41.30;;;;;;5005323;28;20468;-89
2022/10/01 08:51:53;;;;;;;1.87;1.77;;;22.40;41.40;;;;;;5004026;28;20444;-91
2022/10/01 08:54:31;;;;;;;1.70;1.60;;;22.40;41.30;;;;;;4999778;28;20459;-92
2022/10/01 08:56:59;;;;;;;1.57;1.47;;;22.40;41.30;;;;;;5002224;28;20503;-89
2022/10/01 08:59:34;;;;;;;1.50;1.40;;;22.40;41.30;;;;;;5007074;28;22752;-90
2022/10/01 09:02:00;;;;;;;1.70;1.60;;;22.30;41.20;;;;;;5006115;28;20550;-90
2022/10/01 09:04:27;;;;;;;1.67;1.57;;;22.30;41.20;;;;;;5005437;28;20470;-90
2022/10/01 09:07:23;;;;;;;1.40;1.30;;;22.40;41.30;;;;;;5003831;28;22635;-86
2022/10/01 09:09:58;;;;;;;1.90;1.50;;;22.40;41.30;;;;;;5003576;28;20480;-86
2022/10/01 09:12:34;;;;;;;1.93;1.63;;;22.30;41.20;;;;;;5004331;28;20463;-87
2022/10/01 09:15:18;;;;;;;1.67;1.57;;;22.30;41.20;;;;;;5002295;28;20482;-86
2022/10/01 09:17:58;;;;;;;1.87;1.50;;;22.40;41.30;;;;;;5012952;28;20488;-86
2022/10/01 09:20:42;;;;;;;2.97;1.80;;;22.30;41.20;;;;;;5008561;28;20455;-86
2022/10/01 09:23:30;;;;;;;1.90;1.80;;;22.40;41.30;;;;;;4999536;28;20950;-89
2022/10/01 09:25:58;;;;;;;1.90;1.80;;;22.40;41.40;;;;;;5002758;28;20476;-90
2022/10/01 09:28:29;;;;;;;1.60;1.50;;;22.40;41.30;;;;;;5006101;28;20598;-88
2022/10/01 09:31:05;;;;;;;1.83;1.73;;;22.30;41.20;;;;;;5004694;28;20842;-90
2022/10/01 09:33:35;;;;;;;2.07;1.70;;;22.30;41.20;;;;;;5007936;28;20475;-85
2022/10/01 09:36:23;;;;;;;1.80;1.70;;;22.30;41.20;;;;;;5005476;28;20629;-87
2022/10/01 09:39:17;;;;;;;2.13;2.00;;;22.30;41.30;;;;;;5000922;28;21085;-90
2022/10/01 09:41:45;;;;;;;1.60;1.50;;;22.30;41.20;;;;;;4996416;28;20459;-91
2022/10/01 09:44:17;;;;;;;2.67;1.80;;;22.30;41.20;;;;;;4993742;28;20451;-90
2022/10/01 09:46:44;;;;;;;1.90;1.60;;;22.30;42.00;;;;;;4997792;28;20496;-87
2022/10/01 09:49:30;;;;;;;2.17;1.80;;;22.40;41.40;;;;;;4995601;28;20476;-85
2022/10/01 09:52:14;;;;;;;1.60;1.50;;;22.30;41.20;;;;;;4997318;28;20539;-89
2022/10/01 09:54:44;;;;;;;2.33;2.13;;;22.40;41.30;;;;;;4994991;28;20471;-88
2022/10/01 09:57:17;;;;;;;2.27;1.87;;;22.30;41.20;;;;;;4997785;28;21054;-91
2022/10/01 10:00:02;;;;;;;1.87;1.73;;;22.40;41.40;;;;;;5008760;28;20448;-88
2022/10/01 10:02:32;;;;;;;1.90;1.70;;;22.30;41.20;;;;;;5003596;28;20465;-89
2022/10/01 10:05:07;;;;;;;1.77;1.67;;;22.30;42.10;;;;;;5004947;28;20468;-88
2022/10/01 10:07:34;;;;;;;1.90;1.70;;;22.30;41.30;;;;;;5006353;28;20453;-87
2022/10/01 10:10:22;;;;;;;2.30;2.13;;;22.30;41.30;;;;;;5003394;28;20460;-91
2022/10/01 10:12:53;;;;;;;1.73;1.63;;;22.30;41.30;;;;;;5005696;28;20464;-88
2022/10/01 10:15:21;;;;;;;1.70;1.60;;;22.30;41.30;;;;;;5002947;28;20464;-86
2022/10/01 10:17:50;;;;;;;1.63;1.53;;;22.40;41.40;;;;;;5006914;28;20475;-91
2022/10/01 10:20:24;;;;;;;2.00;1.90;;;22.30;41.40;;;;;;5003108;28;20460;-87
2022/10/01 10:22:50;;;;;;;1.67;1.57;;;22.30;41.30;;;;;;5006944;28;20509;-88
2022/10/01 10:25:22;;;;;;;2.30;1.80;;;22.40;41.40;;;;;;5006595;28;20538;-89
2022/10/01 10:27:54;;;;;;;1.70;1.60;;;22.40;41.30;;;;;;4990053;28;20519;-90
2022/10/01 10:30:24;;;;;;;4.30;2.03;;;22.40;41.30;;;;;;5002095;28;20461;-91
2022/10/01 10:32:51;;;;;;;2.40;1.80;;;22.30;41.50;;;;;;5003990;28;20457;-87
2022/10/01 10:35:22;;;;;;;1.43;1.33;;;22.40;41.30;;;;;;4985848;28;22724;-89
2022/10/01 10:37:52;;;;;;;1.90;1.80;;;22.30;41.20;;;;;;5005021;28;20975;-89
2022/10/01 10:40:23;;;;;;;1.60;1.50;;;22.40;41.40;;;;;;4985603;28;20602;-91
2022/10/01 10:42:51;;;;;;;1.80;1.70;;;22.40;41.40;;;;;;4982754;28;21229;-89
2022/10/01 10:45:20;;;;;;;1.60;1.50;;;22.40;41.40;;;;;;5000027;28;20472;-86
2022/10/01 10:47:49;;;;;;;1.67;1.57;;;22.40;41.30;;;;;;5003711;28;20440;-87
2022/10/01 10:50:35;;;;;;;2.27;1.70;;;22.40;41.40;;;;;;5001561;28;20460;-86
2022/10/01 10:53:17;;;;;;;2.27;1.63;;;22.40;41.30;;;;;;4999600;28;20481;-89
2022/10/01 10:55:53;;;;;;;1.57;1.40;;;22.40;41.30;;;;;;5005828;28;20949;-90
2022/10/01 10:58:18;;;;;;;1.53;1.43;;;22.40;41.30;;;;;;5001951;28;20470;-90
2022/10/01 11:00:48;;;;;;;1.60;1.50;;;22.40;41.40;;;;;;4999085;28;20464;-89
2022/10/01 11:03:19;;;;;;;1.53;1.43;;;22.40;41.40;;;;;;5000618;28;20237;-86
2022/10/01 11:05:45;;;;;;;1.70;1.60;;;22.40;41.30;;;;;;5000009;28;20464;-86
2022/10/01 11:08:20;;;;;;;1.60;1.50;;;22.40;41.30;;;;;;4990036;28;20499;-91
2022/10/01 11:11:02;;;;;;;1.63;1.53;;;22.40;41.30;;;;;;5005069;28;20475;-88
2022/10/01 11:13:48;;;;;;;1.50;1.40;;;22.40;41.30;;;;;;4993609;28;21060;-86
2022/10/01 11:16:33;;;;;;;3.10;1.70;;;22.40;41.30;;;;;;5002073;28;20456;-85
2022/10/01 11:19:29;;;;;;;3.00;1.63;;;22.40;41.40;;;;;;4999294;28;20898;-86
2022/10/01 11:22:27;;;;;;;1.50;1.40;;;22.40;41.30;;;;;;4982856;28;21361;-90
2022/10/01 11:25:04;;;;;;;1.67;1.57;;;22.40;41.30;;;;;;4997722;28;20476;-89
2022/10/01 11:27:41;;;;;;;1.60;1.50;;;22.40;41.30;;;;;;4999281;28;20460;-90
2022/10/01 11:30:09;;;;;;;3.50;1.57;;;22.40;41.30;;;;;;4998864;28;20476;-88
2022/10/01 11:32:45;;;;;;;1.57;1.47;;;22.40;41.40;;;;;;5000280;28;21286;-90
2022/10/01 11:35:49;;;;;;;1.53;1.43;;;22.40;41.30;;;;;;5001653;28;20567;-92
2022/10/01 11:38:48;;;;;;;12.40;1.57;;;22.40;41.30;;;;;;4982569;28;21676;-86
2022/10/01 11:41:32;;;;;;;2.90;1.80;;;22.40;41.30;;;;;;5001592;28;20459;-85
2022/10/01 11:44:17;;;;;;;1.40;1.30;;;22.40;41.30;;;;;;4994040;28;21249;-85
2022/10/01 11:47:13;;;;;;;1.50;1.40;;;22.40;41.30;;;;;;5000952;28;20477;-86
2022/10/01 11:49:40;;;;;;;2.07;1.73;;;22.40;41.30;;;;;;4998953;28;20565;-90
2022/10/01 11:52:11;;;;;;;1.50;1.40;;;22.40;41.40;;;;;;5002213;28;20477;-89
2022/10/01 11:54:51;;;;;;;2.00;1.53;;;22.40;41.40;;;;;;4999627;28;20481;-86
2022/10/01 12:00:09;;;;;;;1.60;1.50;;;22.50;41.40;;;;;;5001729;28;20478;-87
2022/10/01 12:02:41;;;;;;;1.30;1.20;;;22.50;41.40;;;;;;4998735;28;20559;-91
2022/10/01 12:05:17;;;;;;;1.80;1.70;;;22.50;41.40;;;;;;4999627;28;20464;-89
2022/10/01 12:08:23;;;;;;;1.73;1.63;;;22.50;41.40;;;;;;4996153;28;20472;-85
2022/10/01 12:11:04;;;;;;;2.00;1.90;;;22.50;41.40;;;;;;4933894;28;20463;-89
2022/10/01 12:13:39;;;;;;;1.50;1.40;;;22.50;41.40;;;;;;4917115;28;20903;-91
2022/10/01 12:16:10;;;;;;;1.60;1.50;;;22.50;41.40;;;;;;4975446;28;21061;-89
2022/10/01 12:18:56;;;;;;;1.50;1.40;;;22.50;41.40;;;;;;5003244;28;20815;-90
2022/10/01 12:21:24;;;;;;;1.50;1.40;;;22.50;41.40;;;;;;4999042;28;20467;-86
2022/10/01 12:24:12;;;;;;;1.80;1.70;;;22.50;41.50;;;;;;4998997;28;21268;-86
2022/10/01 12:26:59;;;;;;;1.83;1.30;;;22.50;41.40;;;;;;5010314;28;20468;-89
2022/10/01 12:29:37;;;;;;;1.70;1.60;;;22.50;41.50;;;;;;4974563;28;20614;-88
2022/10/01 12:32:23;;;;;;;1.50;1.40;;;22.50;41.40;;;;;;4998924;28;20469;-90
2022/10/01 12:35:12;;;;;;;1.83;1.50;;;22.50;41.40;;;;;;4998341;28;20482;-88
2022/10/01 12:37:57;;;;;;;1.57;1.47;;;22.50;41.40;;;;;;4998539;28;20475;-89
2022/10/01 12:40:29;;;;;;;1.60;1.50;;;22.50;41.40;;;;;;4999209;28;20558;-91
2022/10/01 12:42:57;;;;;;;1.63;1.53;;;22.50;41.40;;;;;;5001509;28;20464;-91
2022/10/01 12:45:58;;;;;;;1.50;1.40;;;22.50;41.40;;;;;;5000548;28;20444;-92
2022/10/01 12:48:46;;;;;;;2.07;1.97;;;22.50;41.40;;;;;;5002430;28;20475;-91
2022/10/01 12:51:37;;;;;;;1.80;1.70;;;22.50;41.40;;;;;;5001204;28;20593;-88
2022/10/01 12:54:15;;;;;;;1.40;1.30;;;22.50;41.40;;;;;;4992392;28;20472;-89
2022/10/01 12:56:51;;;;;;;1.60;1.50;;;22.50;41.50;;;;;;5000295;28;20472;-88
2022/10/01 12:59:41;;;;;;;1.57;1.47;;;22.50;41.40;;;;;;5002328;28;20492;-89
2022/10/01 13:02:39;;;;;;;1.50;1.40;;;22.50;41.40;;;;;;5001567;28;20681;-92
2022/10/01 13:05:05;;;;;;;3.33;1.43;;;22.50;41.50;;;;;;4982021;28;20484;-89
2022/10/01 13:07:46;;;;;;;2.37;1.60;;;22.50;41.50;;;;;;5003450;28;20913;-92
2022/10/01 13:10:28;;;;;;;1.77;1.67;;;22.50;41.40;;;;;;5000942;28;20284;-90
2022/10/01 13:13:07;;;;;;;1.40;1.30;;;22.50;41.40;;;;;;5000845;28;20570;-90
2022/10/01 13:15:38;;;;;;;1.60;1.50;;;22.50;41.40;;;;;;5001746;28;20467;-88